Time;durP1;ratioP1;P1;durP2;ratioP2;P2;SDS_P1;SDS_P2;PMS_P1;PMS_P2;Temp;Humidity;BMP_temperature;BMP_pressure;BME280_temperature;BME280_humidity;BME280_pressure;Samples;Min_cycle;Max_cycle;Signal;HPM_P1;HPM_P2
2022/10/24 00:00:42;;;;;;;0.00;0.00;;;14.90;99.90;;;;;;4998908;28;20482;-74
2022/10/24 00:03:10;;;;;;;0.00;0.00;;;14.90;99.90;;;;;;4993104;28;20834;-74
2022/10/24 00:05:42;;;;;;;0.00;0.00;;;15.00;99.90;;;;;;4998451;28;20863;-74
2022/10/24 00:08:10;;;;;;;0.00;0.00;;;15.00;99.90;;;;;;4996952;28;20463;-74
2022/10/24 00:10:42;;;;;;;0.00;0.00;;;15.00;99.90;;;;;;4999918;28;20544;-73
2022/10/24 00:13:13;;;;;;;0.00;0.00;;;15.10;99.90;;;;;;4993521;28;20451;-75
2022/10/24 00:15:43;;;;;;;0.00;0.00;;;15.10;99.90;;;;;;4992558;28;20463;-74
2022/10/24 00:18:11;;;;;;;0.00;0.00;;;15.10;99.90;;;;;;5000723;28;20464;-74
2022/10/24 00:20:40;;;;;;;0.00;0.00;;;15.10;99.90;;;;;;4993836;28;20998;-74
2022/10/24 00:23:08;;;;;;;0.00;0.00;;;15.10;99.90;;;;;;4998862;28;20461;-74
2022/10/24 00:25:36;;;;;;;0.00;0.00;;;15.10;99.90;;;;;;4999005;28;20442;-74
2022/10/24 00:28:04;;;;;;;0.00;0.00;;;15.10;99.90;;;;;;5000611;28;20439;-74
2022/10/24 00:30:33;;;;;;;0.00;0.00;;;15.10;99.90;;;;;;4994403;28;21172;-74
2022/10/24 00:33:01;;;;;;;0.00;0.00;;;15.20;99.90;;;;;;4999448;28;20458;-74
2022/10/24 00:35:29;;;;;;;0.00;0.00;;;15.10;99.90;;;;;;5002908;28;20494;-75
2022/10/24 00:37:57;;;;;;;0.00;0.00;;;15.10;99.90;;;;;;5010179;28;20446;-74
2022/10/24 00:40:25;;;;;;;0.00;0.00;;;15.10;99.90;;;;;;5000706;28;20474;-74
2022/10/24 00:42:53;;;;;;;0.00;0.00;;;15.10;99.90;;;;;;5006491;28;20470;-74
2022/10/24 00:45:46;;;;;;;0.00;0.00;;;15.20;99.90;;;;;;5000069;28;20434;-75
2022/10/24 00:48:23;;;;;;;0.00;0.00;;;15.20;99.90;;;;;;5002640;28;20472;-74
2022/10/24 00:50:54;;;;;;;0.00;0.00;;;15.20;99.90;;;;;;5002470;28;20483;-75
2022/10/24 00:53:23;;;;;;;0.00;0.00;;;15.20;99.90;;;;;;5003968;28;20450;-76
2022/10/24 00:55:56;;;;;;;0.00;0.00;;;15.10;99.90;;;;;;4997631;28;20890;-76
2022/10/24 00:58:27;;;;;;;0.00;0.00;;;15.00;99.90;;;;;;5003574;28;20430;-76
2022/10/24 01:00:57;;;;;;;0.00;0.00;;;15.00;99.90;;;;;;4999869;28;20500;-75
2022/10/24 01:03:24;;;;;;;0.00;0.00;;;15.00;99.90;;;;;;4997241;28;20443;-74
2022/10/24 01:06:07;;;;;;;0.00;0.00;;;15.00;99.90;;;;;;5000931;28;20446;-75
2022/10/24 01:08:43;;;;;;;0.00;0.00;;;15.00;99.90;;;;;;5001673;28;20437;-75
2022/10/24 01:11:23;;;;;;;0.00;0.00;;;15.00;99.90;;;;;;5003441;28;20465;-76
2022/10/24 01:14:00;;;;;;;0.00;0.00;;;15.00;99.90;;;;;;4997852;28;20438;-75
2022/10/24 01:16:37;;;;;;;0.00;0.00;;;15.00;99.90;;;;;;5004614;28;20477;-76
2022/10/24 01:19:18;;;;;;;0.00;0.00;;;15.00;99.90;;;;;;5002387;28;20446;-75
2022/10/24 01:21:52;;;;;;;0.00;0.00;;;14.90;99.90;;;;;;5002907;28;20959;-75
2022/10/24 01:24:34;;;;;;;0.00;0.00;;;14.80;99.90;;;;;;5002748;28;21121;-75
2022/10/24 01:27:37;;;;;;;0.00;0.00;;;14.70;99.90;;;;;;5002864;28;20492;-75
2022/10/24 01:30:11;;;;;;;0.00;0.00;;;14.60;99.90;;;;;;4995336;28;20441;-75
2022/10/24 01:32:45;;;;;;;0.00;0.00;;;14.50;99.90;;;;;;5000581;28;20446;-75
2022/10/24 01:35:29;;;;;;;0.00;0.00;;;14.40;99.90;;;;;;5002410;28;20490;-75
2022/10/24 01:38:04;;;;;;;0.00;0.00;;;14.40;99.90;;;;;;5000420;28;20454;-76
2022/10/24 01:40:36;;;;;;;0.00;0.00;;;14.30;99.90;;;;;;4997368;28;20470;-75
2022/10/24 01:43:09;;;;;;;0.00;0.00;;;14.30;99.90;;;;;;5006014;28;20446;-75
2022/10/24 01:45:41;;;;;;;0.00;0.00;;;14.30;99.90;;;;;;4995555;28;20465;-75
2022/10/24 01:48:13;;;;;;;0.00;0.00;;;14.30;99.90;;;;;;5004524;28;20466;-74
2022/10/24 01:50:44;;;;;;;0.00;0.00;;;14.30;99.90;;;;;;5001037;28;20466;-74
2022/10/24 01:53:14;;;;;;;0.00;0.00;;;14.30;99.90;;;;;;5005393;28;20941;-76
2022/10/24 01:55:43;;;;;;;0.00;0.00;;;14.30;99.90;;;;;;5000917;28;20450;-76
2022/10/24 01:58:11;;;;;;;0.00;0.00;;;14.20;99.90;;;;;;5001298;28;20442;-75
2022/10/24 02:00:42;;;;;;;0.00;0.00;;;14.20;99.90;;;;;;4999624;28;20893;-76
2022/10/24 02:03:19;;;;;;;0.00;0.00;;;14.10;99.90;;;;;;5001563;28;20561;-75
2022/10/24 02:05:51;;;;;;;0.00;0.00;;;14.10;99.90;;;;;;5001052;28;20951;-75
2022/10/24 02:08:21;;;;;;;0.00;0.00;;;14.10;99.90;;;;;;4998219;28;20447;-75
2022/10/24 02:10:53;;;;;;;0.00;0.00;;;14.10;99.90;;;;;;5002393;28;20468;-76
2022/10/24 02:13:29;;;;;;;0.00;0.00;;;14.00;99.90;;;;;;4999461;28;20489;-75
2022/10/24 02:21:29;;;;;;;0.00;0.00;;;13.90;99.90;;;;;;5002435;28;20497;-74
2022/10/24 02:24:02;;;;;;;0.00;0.00;;;13.90;99.90;;;;;;4994037;28;20451;-74
2022/10/24 02:26:34;;;;;;;0.00;0.00;;;13.90;99.90;;;;;;4997255;28;20462;-73
2022/10/24 02:29:08;;;;;;;0.00;0.00;;;13.90;99.90;;;;;;4996135;28;20457;-73
2022/10/24 02:31:39;;;;;;;0.00;0.00;;;13.90;99.90;;;;;;4996646;28;20601;-73
2022/10/24 02:34:09;;;;;;;0.00;0.00;;;13.90;99.90;;;;;;4997495;28;20439;-73
2022/10/24 02:36:42;;;;;;;0.00;0.00;;;13.80;99.90;;;;;;4999789;28;20478;-73
2022/10/24 02:39:11;;;;;;;0.00;0.00;;;13.80;99.90;;;;;;4995180;28;20845;-74
2022/10/24 02:41:42;;;;;;;0.00;0.00;;;13.80;99.90;;;;;;4993704;28;20474;-75
2022/10/24 02:44:13;;;;;;;0.00;0.00;;;13.80;99.90;;;;;;4998495;28;20438;-75
2022/10/24 02:46:42;;;;;;;0.00;0.00;;;13.80;99.90;;;;;;4999373;28;20442;-74
2022/10/24 02:49:10;;;;;;;0.00;0.00;;;13.70;99.90;;;;;;4993316;28;21160;-75
2022/10/24 02:51:42;;;;;;;0.00;0.00;;;13.70;99.90;;;;;;4994571;28;20522;-75
2022/10/24 02:54:10;;;;;;;0.00;0.00;;;13.70;99.90;;;;;;4996423;28;20478;-74
2022/10/24 02:56:42;;;;;;;0.00;0.00;;;13.70;99.90;;;;;;4994859;28;20509;-75
2022/10/24 02:59:10;;;;;;;0.00;0.00;;;13.70;99.90;;;;;;4995393;28;20446;-74
2022/10/24 03:01:38;;;;;;;0.00;0.00;;;13.70;99.90;;;;;;4995548;28;20459;-74
2022/10/24 03:04:06;;;;;;;0.00;0.00;;;13.60;99.90;;;;;;4996302;28;20453;-75
2022/10/24 03:06:34;;;;;;;0.00;0.00;;;13.70;99.90;;;;;;4995127;28;20623;-75
2022/10/24 03:09:03;;;;;;;0.00;0.00;;;13.60;99.90;;;;;;4996118;28;20497;-75
2022/10/24 03:11:31;;;;;;;0.00;0.00;;;13.60;99.90;;;;;;4997401;28;20614;-74
2022/10/24 03:13:58;;;;;;;0.00;0.00;;;13.60;99.90;;;;;;4993188;28;20481;-74
2022/10/24 03:16:27;;;;;;;0.00;0.00;;;13.60;99.90;;;;;;5000199;28;21090;-74
2022/10/24 03:18:56;;;;;;;0.00;0.00;;;13.60;99.90;;;;;;4995053;28;20898;-75
2022/10/24 03:21:24;;;;;;;0.00;0.00;;;13.60;99.90;;;;;;4993646;28;20475;-75
2022/10/24 03:23:52;;;;;;;0.00;0.00;;;13.60;99.90;;;;;;5000521;28;20458;-75
2022/10/24 03:26:21;;;;;;;0.00;0.00;;;13.60;99.90;;;;;;4993165;28;20822;-75
2022/10/24 03:28:49;;;;;;;0.00;0.00;;;13.50;99.90;;;;;;4994246;28;20509;-75
2022/10/24 03:31:16;;;;;;;0.00;0.00;;;13.50;99.90;;;;;;5000711;28;20467;-75
2022/10/24 03:33:44;;;;;;;0.00;0.00;;;13.50;99.90;;;;;;4992701;28;20458;-75
2022/10/24 03:36:12;;;;;;;0.00;0.00;;;13.50;99.90;;;;;;4993871;28;21411;-75
2022/10/24 03:38:40;;;;;;;0.00;0.00;;;13.40;99.90;;;;;;4997051;28;20541;-75
2022/10/24 03:41:07;;;;;;;0.00;0.00;;;13.40;99.90;;;;;;4994666;28;20471;-75
2022/10/24 03:43:36;;;;;;;0.00;0.00;;;13.40;99.90;;;;;;4992031;28;20897;-74
2022/10/24 03:46:04;;;;;;;0.00;0.00;;;13.40;99.90;;;;;;4999342;28;20502;-75
2022/10/24 03:48:32;;;;;;;0.00;0.00;;;13.40;99.90;;;;;;4995298;28;20451;-77
2022/10/24 03:51:00;;;;;;;0.00;0.00;;;13.40;99.90;;;;;;5000846;28;20878;-77
2022/10/24 03:53:28;;;;;;;0.00;0.00;;;13.30;99.90;;;;;;5001270;28;20466;-75
2022/10/24 03:55:56;;;;;;;0.00;0.00;;;13.30;99.90;;;;;;4992734;28;20442;-76
2022/10/24 03:58:24;;;;;;;0.00;0.00;;;13.30;99.90;;;;;;4995074;28;20518;-76
2022/10/24 04:00:57;;;;;;;0.00;0.00;;;13.30;99.90;;;;;;4992245;28;20476;-76
2022/10/24 04:03:25;;;;;;;0.00;0.00;;;13.20;99.90;;;;;;4994199;28;20553;-75
2022/10/24 04:05:52;;;;;;;0.00;0.00;;;13.20;99.90;;;;;;4994944;28;20451;-75
2022/10/24 04:08:20;;;;;;;0.00;0.00;;;13.20;99.90;;;;;;5000329;28;20494;-74
2022/10/24 04:10:49;;;;;;;0.00;0.00;;;13.20;99.90;;;;;;4998041;28;20466;-73
2022/10/24 04:13:17;;;;;;;0.00;0.00;;;13.20;99.90;;;;;;4995850;28;20458;-73
2022/10/24 04:15:44;;;;;;;0.00;0.00;;;13.20;99.90;;;;;;4999401;28;20442;-73
2022/10/24 04:18:13;;;;;;;0.00;0.00;;;13.20;99.90;;;;;;4997164;28;20576;-74
2022/10/24 04:20:41;;;;;;;0.00;0.00;;;13.20;99.90;;;;;;4994445;28;20582;-80
2022/10/24 04:23:09;;;;;;;0.00;0.00;;;13.20;99.90;;;;;;5010044;28;20481;-80
2022/10/24 04:25:37;;;;;;;0.00;0.00;;;13.20;99.90;;;;;;5017304;28;20490;-79
2022/10/24 04:28:05;;;;;;;0.00;0.00;;;13.30;99.90;;;;;;5026844;28;20863;-77
2022/10/24 04:30:33;;;;;;;0.00;0.00;;;13.30;99.90;;;;;;5024226;28;20459;-80
2022/10/24 04:33:01;;;;;;;0.00;0.00;;;13.30;99.90;;;;;;5009482;28;20474;-80
2022/10/24 04:35:31;;;;;;;0.00;0.00;;;13.30;99.90;;;;;;5022398;28;20460;-80
2022/10/24 04:37:58;;;;;;;0.00;0.00;;;13.20;99.90;;;;;;5017510;28;20545;-79
2022/10/24 04:40:26;;;;;;;0.00;0.00;;;13.20;99.90;;;;;;5006880;28;20474;-80
2022/10/24 04:42:54;;;;;;;0.00;0.00;;;13.20;99.90;;;;;;5002936;28;20524;-75
2022/10/24 04:45:22;;;;;;;0.00;0.00;;;13.10;99.90;;;;;;4995131;28;20864;-75
2022/10/24 04:47:50;;;;;;;0.00;0.00;;;13.10;99.90;;;;;;4997715;28;20509;-75
2022/10/24 04:50:17;;;;;;;0.00;0.00;;;13.20;99.90;;;;;;4997300;28;20471;-75
2022/10/24 04:52:47;;;;;;;0.00;0.00;;;13.20;99.90;;;;;;4995967;28;20454;-72
2022/10/24 04:55:14;;;;;;;0.00;0.00;;;13.20;99.90;;;;;;5004282;28;20447;-74
2022/10/24 04:57:42;;;;;;;0.00;0.00;;;13.20;99.90;;;;;;4998107;28;21096;-75
2022/10/24 05:00:11;;;;;;;0.00;0.00;;;13.20;99.90;;;;;;4992887;28;20459;-75
2022/10/24 05:02:39;;;;;;;0.00;0.00;;;13.10;99.90;;;;;;4991931;28;20525;-72
2022/10/24 05:05:08;;;;;;;0.00;0.00;;;13.10;99.90;;;;;;4999068;28;20945;-74
2022/10/24 05:07:36;;;;;;;0.00;0.00;;;13.10;99.90;;;;;;4994280;28;20481;-75
2022/10/24 05:10:06;;;;;;;0.00;0.00;;;13.10;99.90;;;;;;4996488;28;20466;-75
2022/10/24 05:12:34;;;;;;;0.00;0.00;;;13.10;99.90;;;;;;4998140;28;20445;-73
2022/10/24 05:15:01;;;;;;;0.00;0.00;;;13.10;99.90;;;;;;4997691;28;20459;-72
2022/10/24 05:17:29;;;;;;;0.00;0.00;;;13.10;99.90;;;;;;4995511;28;20455;-73
2022/10/24 05:19:57;;;;;;;0.00;0.00;;;13.00;99.90;;;;;;4991107;28;20492;-73
2022/10/24 05:22:25;;;;;;;0.00;0.00;;;13.10;99.90;;;;;;4992897;28;20575;-75
2022/10/24 05:24:53;;;;;;;0.00;0.00;;;13.10;99.90;;;;;;4999560;28;20459;-76
2022/10/24 05:27:24;;;;;;;0.00;0.00;;;13.10;99.90;;;;;;4992110;28;20459;-73
2022/10/24 05:29:52;;;;;;;0.00;0.00;;;13.10;99.90;;;;;;4994149;28;20505;-73
2022/10/24 05:32:21;;;;;;;0.00;0.00;;;13.10;99.90;;;;;;4997937;28;20993;-75
2022/10/24 05:34:49;;;;;;;0.00;0.00;;;13.10;99.90;;;;;;4997619;28;20454;-74
2022/10/24 05:37:17;;;;;;;0.00;0.00;;;13.00;99.90;;;;;;4996540;28;20442;-74
2022/10/24 05:39:45;;;;;;;0.00;0.00;;;13.00;99.90;;;;;;4998507;28;20477;-74
2022/10/24 05:42:13;;;;;;;0.00;0.00;;;13.00;99.90;;;;;;4995941;28;20470;-75
2022/10/24 05:44:42;;;;;;;0.00;0.00;;;13.00;99.90;;;;;;4996899;28;20964;-68
2022/10/24 05:47:10;;;;;;;0.00;0.00;;;13.00;99.90;;;;;;4993503;28;20447;-68
2022/10/24 05:49:38;;;;;;;0.00;0.00;;;12.90;99.90;;;;;;4996545;28;20446;-70
2022/10/24 05:52:05;;;;;;;0.00;0.00;;;12.90;99.90;;;;;;4998097;28;20477;-70
2022/10/24 05:54:33;;;;;;;0.00;0.00;;;12.80;99.90;;;;;;5002434;28;20442;-69
2022/10/24 05:57:21;;;;;;;0.00;0.00;;;12.80;99.90;;;;;;4996466;28;20441;-69
2022/10/24 05:59:50;;;;;;;0.00;0.00;;;12.80;99.90;;;;;;4996352;28;20866;-69
2022/10/24 06:02:19;;;;;;;0.00;0.00;;;12.80;99.90;;;;;;4996009;28;20970;-70
2022/10/24 06:04:49;;;;;;;0.00;0.00;;;12.80;99.90;;;;;;4995490;28;20929;-69
2022/10/24 06:07:18;;;;;;;0.00;0.00;;;12.80;99.90;;;;;;5001874;28;20471;-69
2022/10/24 06:09:46;;;;;;;0.00;0.00;;;12.80;99.90;;;;;;4996763;28;20442;-69
2022/10/24 06:12:14;;;;;;;0.00;0.00;;;12.80;99.90;;;;;;4999784;28;20465;-69
2022/10/24 06:14:43;;;;;;;0.00;0.00;;;12.80;99.90;;;;;;4996211;28;20474;-69
2022/10/24 06:17:12;;;;;;;0.00;0.00;;;12.80;99.90;;;;;;4996544;28;20454;-69
2022/10/24 06:19:40;;;;;;;0.00;0.00;;;12.80;99.90;;;;;;4994529;28;20979;-69
2022/10/24 06:22:08;;;;;;;0.00;0.00;;;12.80;99.90;;;;;;4996924;28;20497;-69
2022/10/24 06:24:37;;;;;;;0.00;0.00;;;12.80;99.90;;;;;;5000521;28;20511;-69
2022/10/24 06:27:06;;;;;;;0.00;0.00;;;12.80;99.90;;;;;;4998158;28;20529;-69
2022/10/24 06:29:34;;;;;;;0.00;0.00;;;12.90;99.90;;;;;;4994891;28;20442;-69
2022/10/24 06:32:03;;;;;;;0.00;0.00;;;12.90;99.90;;;;;;4994316;28;20467;-68
2022/10/24 06:34:32;;;;;;;0.00;0.00;;;12.90;99.90;;;;;;4995120;28;20873;-68
2022/10/24 06:37:00;;;;;;;0.00;0.00;;;12.90;99.90;;;;;;4995234;28;20443;-68
2022/10/24 06:39:28;;;;;;;0.00;0.00;;;12.90;99.90;;;;;;4995037;28;20486;-69
2022/10/24 06:41:55;;;;;;;0.00;0.00;;;12.90;99.90;;;;;;4994969;28;20459;-68
2022/10/24 06:44:23;;;;;;;0.00;0.00;;;13.00;99.90;;;;;;4996054;28;20442;-68
2022/10/24 06:46:51;;;;;;;0.00;0.00;;;13.00;99.90;;;;;;4999332;28;20463;-68
2022/10/24 06:49:19;;;;;;;0.00;0.00;;;13.00;99.90;;;;;;4996322;28;20451;-70
2022/10/24 06:51:48;;;;;;;0.00;0.00;;;13.10;99.90;;;;;;4996425;28;20471;-69
2022/10/24 06:54:17;;;;;;;0.00;0.00;;;13.10;99.90;;;;;;4989782;28;20454;-68
2022/10/24 06:56:44;;;;;;;0.00;0.00;;;13.10;99.90;;;;;;4995889;28;20470;-68
2022/10/24 06:59:15;;;;;;;0.00;0.00;;;13.20;99.90;;;;;;4993468;28;20483;-68
2022/10/24 07:01:44;;;;;;;0.00;0.00;;;13.20;99.90;;;;;;4993162;28;20467;-68
2022/10/24 07:04:12;;;;;;;0.00;0.00;;;13.20;99.90;;;;;;4994406;28;20453;-70
2022/10/24 07:06:40;;;;;;;0.00;0.00;;;13.30;99.90;;;;;;4997199;28;20478;-69
2022/10/24 07:09:11;;;;;;;0.00;0.00;;;13.30;99.90;;;;;;4994455;28;20443;-68
2022/10/24 07:11:42;;;;;;;0.00;0.00;;;13.30;99.90;;;;;;4992959;28;20476;-68
2022/10/24 07:14:10;;;;;;;0.00;0.00;;;13.40;99.90;;;;;;4991667;28;20474;-68
2022/10/24 07:16:39;;;;;;;0.00;0.00;;;13.40;99.90;;;;;;4996447;28;21004;-68
2022/10/24 07:19:07;;;;;;;0.00;0.00;;;13.50;99.90;;;;;;4995586;28;20487;-66
2022/10/24 07:21:35;;;;;;;0.00;0.00;;;13.50;99.90;;;;;;4994457;28;20880;-68
2022/10/24 07:24:04;;;;;;;0.00;0.00;;;13.50;99.90;;;;;;4992457;28;21107;-68
2022/10/24 07:26:33;;;;;;;0.00;0.00;;;13.50;99.90;;;;;;4987130;28;20501;-68
2022/10/24 07:29:02;;;;;;;0.00;0.00;;;13.60;99.90;;;;;;4990750;28;20492;-68
2022/10/24 07:31:36;;;;;;;0.00;0.00;;;13.60;99.90;;;;;;4991868;28;20474;-68
2022/10/24 07:34:07;;;;;;;0.00;0.00;;;13.70;99.90;;;;;;4995961;28;20446;-68
2022/10/24 07:36:35;;;;;;;0.00;0.00;;;13.70;99.90;;;;;;4991074;28;20533;-68
2022/10/24 07:39:10;;;;;;;0.00;0.00;;;13.80;99.90;;;;;;4998202;28;20584;-68
2022/10/24 07:41:41;;;;;;;0.00;0.00;;;13.90;99.90;;;;;;4993971;28;20992;-68
2022/10/24 07:44:10;;;;;;;0.00;0.00;;;13.90;99.90;;;;;;4998106;28;20450;-68
2022/10/24 07:46:38;;;;;;;0.00;0.00;;;13.90;99.90;;;;;;4999109;28;20505;-68
2022/10/24 07:49:07;;;;;;;0.00;0.00;;;14.00;99.90;;;;;;4996301;28;20453;-68
2022/10/24 07:51:35;;;;;;;0.00;0.00;;;14.00;99.90;;;;;;5000411;28;20991;-67
2022/10/24 07:54:04;;;;;;;0.00;0.00;;;14.10;99.90;;;;;;4993569;28;20481;-65
2022/10/24 07:56:31;;;;;;;0.00;0.00;;;14.10;99.90;;;;;;4804968;28;5000962;-65
2022/10/24 07:59:01;;;;;;;0.00;0.00;;;14.20;99.90;;;;;;5002432;28;20513;-65
2022/10/24 08:01:36;;;;;;;0.00;0.00;;;14.30;99.90;;;;;;4995713;28;20478;-65
2022/10/24 08:04:04;;;;;;;0.00;0.00;;;14.30;99.90;;;;;;4993672;28;20827;-65
2022/10/24 08:06:32;;;;;;;0.00;0.00;;;14.30;99.90;;;;;;4991309;28;20450;-64
2022/10/24 08:09:00;;;;;;;0.00;0.00;;;14.30;99.90;;;;;;4996094;28;20842;-65
2022/10/24 08:11:30;;;;;;;0.00;0.00;;;14.40;99.90;;;;;;4997171;28;20988;-65
2022/10/24 08:13:58;;;;;;;0.00;0.00;;;14.50;99.90;;;;;;4994999;28;20956;-65
2022/10/24 08:16:27;;;;;;;0.00;0.00;;;14.50;99.90;;;;;;4995170;28;20518;-65
2022/10/24 08:18:57;;;;;;;0.00;0.00;;;14.60;99.90;;;;;;4999883;28;20502;-65
2022/10/24 08:21:25;;;;;;;0.00;0.00;;;14.60;99.90;;;;;;4995428;28;20498;-65
2022/10/24 08:23:55;;;;;;;0.00;0.00;;;14.70;99.90;;;;;;5002414;28;20551;-65
2022/10/24 08:26:25;;;;;;;0.00;0.00;;;14.80;99.90;;;;;;4997147;28;20868;-66
2022/10/24 08:28:54;;;;;;;0.00;0.00;;;14.80;99.90;;;;;;4999314;28;20485;-67
2022/10/24 08:31:23;;;;;;;0.00;0.00;;;14.80;99.90;;;;;;4992459;28;20470;-69
2022/10/24 08:33:53;;;;;;;0.00;0.00;;;14.80;99.90;;;;;;4998066;28;20885;-68
2022/10/24 08:36:24;;;;;;;0.00;0.00;;;14.90;99.90;;;;;;4992832;28;20461;-68
2022/10/24 08:38:52;;;;;;;0.00;0.00;;;14.90;99.90;;;;;;4992688;28;20467;-67
2022/10/24 08:41:27;;;;;;;0.00;0.00;;;14.90;99.90;;;;;;4994174;28;20552;-67
2022/10/24 08:43:56;;;;;;;0.00;0.00;;;15.00;99.90;;;;;;4994582;28;20454;-68
2022/10/24 08:46:36;;;;;;;0.00;0.00;;;15.00;99.90;;;;;;4996443;28;20512;-71
2022/10/24 08:50:04;;;;;;;0.00;0.00;;;15.10;99.90;;;;;;5096286;27;1179390;-70
2022/10/24 08:52:35;;;;;;;0.00;0.00;;;15.20;99.90;;;;;;5115696;28;20196;-70
2022/10/24 08:55:10;;;;;;;0.00;0.00;;;15.20;99.90;;;;;;5119310;28;20444;-71
2022/10/24 08:58:00;;;;;;;0.00;0.00;;;15.30;99.90;;;;;;5120269;28;20819;-70
2022/10/24 09:00:35;;;;;;;0.00;0.00;;;15.30;99.90;;;;;;5118474;27;20483;-70
2022/10/24 09:03:09;;;;;;;0.00;0.00;;;15.40;99.90;;;;;;5116653;28;20436;-69
2022/10/24 09:05:42;;;;;;;0.00;0.00;;;15.40;99.90;;;;;;5118518;28;20958;-70
2022/10/24 09:08:21;;;;;;;0.00;0.00;;;15.50;99.90;;;;;;5120499;28;20477;-70
2022/10/24 09:10:56;;;;;;;0.00;0.00;;;15.60;99.90;;;;;;5121863;28;20460;-70
2022/10/24 09:13:28;;;;;;;0.00;0.00;;;15.60;99.90;;;;;;5116190;28;20475;-70
2022/10/24 09:15:56;;;;;;;0.00;0.00;;;15.80;99.90;;;;;;5123937;28;20503;-70
2022/10/24 09:18:27;;;;;;;0.00;0.00;;;16.00;99.90;;;;;;5121846;28;20437;-71
2022/10/24 09:20:56;;;;;;;0.00;0.00;;;16.00;99.90;;;;;;5116784;28;20501;-71
2022/10/24 09:23:26;;;;;;;0.00;0.00;;;16.00;99.90;;;;;;5119016;28;20452;-71
2022/10/24 09:25:57;;;;;;;0.00;0.00;;;16.00;99.90;;;;;;5117237;28;20442;-69
2022/10/24 09:28:26;;;;;;;0.00;0.00;;;16.10;99.90;;;;;;5117605;28;20481;-69
2022/10/24 09:30:54;;;;;;;0.00;0.00;;;16.20;99.90;;;;;;5117158;27;20491;-69
2022/10/24 09:33:27;;;;;;;0.00;0.00;;;16.20;99.90;;;;;;5118973;28;20875;-69
2022/10/24 09:35:59;;;;;;;0.00;0.00;;;16.30;99.90;;;;;;5116734;28;20430;-69
2022/10/24 09:38:32;;;;;;;0.00;0.00;;;16.40;99.90;;;;;;5118821;28;20435;-70
2022/10/24 09:41:03;;;;;;;0.00;0.00;;;16.40;99.90;;;;;;5117292;27;20484;-69
2022/10/24 09:43:40;;;;;;;0.00;0.00;;;16.50;99.90;;;;;;5118701;28;20454;-69
2022/10/24 09:46:10;;;;;;;0.00;0.00;;;16.50;99.90;;;;;;5118518;28;20475;-69
2022/10/24 09:48:48;;;;;;;0.00;0.00;;;16.60;99.90;;;;;;5121432;28;20474;-69
2022/10/24 09:51:24;;;;;;;0.00;0.00;;;16.80;99.90;;;;;;5113819;28;20522;-68
2022/10/24 09:54:06;;;;;;;0.00;0.00;;;16.90;99.90;;;;;;5114657;28;20441;-69
2022/10/24 09:56:38;;;;;;;0.00;0.00;;;17.00;99.90;;;;;;5114460;28;20445;-66
2022/10/24 09:59:32;;;;;;;0.00;0.00;;;17.20;99.90;;;;;;5114690;28;20481;-68
2022/10/24 10:02:19;;;;;;;0.00;0.00;;;17.20;99.90;;;;;;5099876;28;20471;-68
2022/10/24 10:04:48;;;;;;;0.00;0.00;;;17.10;99.90;;;;;;5102467;28;20440;-66
2022/10/24 10:07:25;;;;;;;0.00;0.00;;;17.20;99.90;;;;;;5105702;28;20482;-67
2022/10/24 10:09:57;;;;;;;0.00;0.00;;;17.20;99.90;;;;;;5105415;28;20479;-68
2022/10/24 10:12:27;;;;;;;0.00;0.00;;;17.20;99.90;;;;;;5102854;28;20453;-67
2022/10/24 10:15:18;;;;;;;0.00;0.00;;;17.20;99.90;;;;;;5106169;28;20440;-68
2022/10/24 10:17:51;;;;;;;0.00;0.00;;;17.20;99.90;;;;;;5103377;28;20491;-68
2022/10/24 10:20:25;;;;;;;0.00;0.00;;;17.40;99.90;;;;;;5102420;28;20464;-69
2022/10/24 10:22:54;;;;;;;0.00;0.00;;;17.50;99.90;;;;;;5104571;28;20448;-68
2022/10/24 10:25:30;;;;;;;0.00;0.00;;;17.50;99.90;;;;;;5104300;28;20434;-67
2022/10/24 10:27:58;;;;;;;0.00;0.00;;;17.60;99.90;;;;;;5102661;28;21231;-68
2022/10/24 10:30:30;;;;;;;0.00;0.00;;;17.70;99.90;;;;;;5102879;28;21028;-67
2022/10/24 10:33:11;;;;;;;0.00;0.00;;;17.60;99.90;;;;;;5103329;28;20545;-68
2022/10/24 10:35:48;;;;;;;0.00;0.00;;;17.70;99.90;;;;;;5100999;28;20448;-68
2022/10/24 10:38:46;;;;;;;0.00;0.00;;;17.80;99.90;;;;;;5103187;28;20430;-68
2022/10/24 10:41:25;;;;;;;0.00;0.00;;;17.80;99.90;;;;;;5099982;28;20511;-66
2022/10/24 10:44:02;;;;;;;0.00;0.00;;;17.80;99.90;;;;;;5098175;28;20498;-68
2022/10/24 10:46:41;;;;;;;0.00;0.00;;;17.90;99.90;;;;;;5097347;28;20487;-66
2022/10/24 10:49:17;;;;;;;0.00;0.00;;;17.90;99.90;;;;;;5097134;28;20504;-67
2022/10/24 10:51:51;;;;;;;0.00;0.00;;;18.00;99.90;;;;;;5097907;28;21018;-67
2022/10/24 10:54:40;;;;;;;0.00;0.00;;;18.10;99.90;;;;;;5098328;28;20445;-66
2022/10/24 10:57:12;;;;;;;0.00;0.00;;;18.40;99.90;;;;;;5098486;28;20440;-68
2022/10/24 10:59:51;;;;;;;0.00;0.00;;;18.50;99.90;;;;;;5101238;28;20442;-68
2022/10/24 11:02:34;;;;;;;0.00;0.00;;;18.70;99.90;;;;;;5103723;28;20443;-68
2022/10/24 11:05:16;;;;;;;0.00;0.00;;;18.80;99.90;;;;;;5101426;28;20485;-68
2022/10/24 11:07:50;;;;;;;0.00;0.00;;;18.80;99.90;;;;;;5097089;28;20430;-68
2022/10/24 11:10:22;;;;;;;0.00;0.00;;;18.80;99.90;;;;;;5100074;28;20489;-67
2022/10/24 11:12:50;;;;;;;0.00;0.00;;;18.80;99.90;;;;;;5106063;28;20490;-68
2022/10/24 11:15:22;;;;;;;0.00;0.00;;;18.80;99.90;;;;;;5103657;28;20446;-68
2022/10/24 11:17:55;;;;;;;0.00;0.00;;;18.90;99.90;;;;;;5101627;28;20440;-67
2022/10/24 11:20:28;;;;;;;0.00;0.00;;;18.90;99.90;;;;;;5101914;28;20451;-67
2022/10/24 11:23:02;;;;;;;0.00;0.00;;;19.00;99.90;;;;;;5101074;28;21037;-68
2022/10/24 11:25:36;;;;;;;0.00;0.00;;;19.10;99.90;;;;;;5108093;28;20444;-67
2022/10/24 11:28:12;;;;;;;0.00;0.00;;;19.30;99.90;;;;;;5103067;28;20449;-66
2022/10/24 11:30:50;;;;;;;0.00;0.00;;;19.40;99.90;;;;;;5101412;28;20911;-67
2022/10/24 11:33:22;;;;;;;0.00;0.00;;;19.40;99.90;;;;;;5099487;28;20450;-67
2022/10/24 11:36:09;;;;;;;0.00;0.00;;;19.40;99.90;;;;;;5102878;28;20449;-66
2022/10/24 11:38:44;;;;;;;0.00;0.00;;;19.50;99.90;;;;;;5096435;28;20995;-66
2022/10/24 11:41:41;;;;;;;0.00;0.00;;;19.50;99.90;;;;;;5098246;28;20494;-67
2022/10/24 11:44:20;;;;;;;0.00;0.00;;;19.40;99.90;;;;;;5100831;28;20442;-67
2022/10/24 11:46:55;;;;;;;0.00;0.00;;;19.30;99.90;;;;;;5099288;28;20933;-68
2022/10/24 11:49:29;;;;;;;0.00;0.00;;;19.40;99.90;;;;;;5103381;28;20482;-67
2022/10/24 11:52:04;;;;;;;0.00;0.00;;;19.50;99.90;;;;;;5099534;28;20533;-67
2022/10/24 11:54:40;;;;;;;0.00;0.00;;;19.50;99.90;;;;;;5095068;28;20442;-68
2022/10/24 11:57:13;;;;;;;0.00;0.00;;;19.40;99.90;;;;;;5097359;28;20440;-68
2022/10/24 11:59:41;;;;;;;0.00;0.00;;;19.30;99.90;;;;;;5107513;28;20528;-77
2022/10/24 12:02:43;;;;;;;0.00;0.00;;;19.30;99.90;;;;;;5099341;28;20879;-68
2022/10/24 12:05:38;;;;;;;0.00;0.00;;;19.30;99.90;;;;;;5072004;28;20476;-68
2022/10/24 12:08:45;;;;;;;0.00;0.00;;;19.40;99.90;;;;;;5091615;28;20446;-68
2022/10/24 12:11:34;;;;;;;0.00;0.00;;;19.40;99.90;;;;;;5091147;28;20535;-65
2022/10/24 12:14:25;;;;;;;0.00;0.00;;;19.40;99.90;;;;;;5092405;28;20516;-67
2022/10/24 12:17:14;;;;;;;0.00;0.00;;;19.40;99.90;;;;;;5094702;28;20434;-67
2022/10/24 12:19:43;;;;;;;0.00;0.00;;;19.50;99.90;;;;;;5091242;28;20451;-67
2022/10/24 12:22:17;;;;;;;0.00;0.00;;;19.50;99.90;;;;;;5093009;28;20458;-68
2022/10/24 12:24:45;;;;;;;0.00;0.00;;;19.50;99.90;;;;;;5093073;28;20932;-66
2022/10/24 12:27:27;;;;;;;0.00;0.00;;;19.60;99.90;;;;;;5092457;28;20446;-66
2022/10/24 12:30:05;;;;;;;0.00;0.00;;;19.60;99.90;;;;;;5095693;28;20825;-67
2022/10/24 12:32:38;;;;;;;0.00;0.00;;;19.50;99.90;;;;;;5092847;28;20449;-67
2022/10/24 12:35:37;;;;;;;0.00;0.00;;;19.40;99.90;;;;;;5092440;28;20484;-68
2022/10/24 12:38:16;;;;;;;0.00;0.00;;;19.40;99.90;;;;;;5080576;28;20443;-68
2022/10/24 12:40:55;;;;;;;0.00;0.00;;;19.40;99.90;;;;;;5094084;28;20466;-68
2022/10/24 12:43:33;;;;;;;0.00;0.00;;;19.40;99.90;;;;;;5092606;28;20464;-68
2022/10/24 12:46:41;;;;;;;0.00;0.00;;;19.40;99.90;;;;;;5094256;28;20478;-71
2022/10/24 12:49:26;;;;;;;0.00;0.00;;;19.40;99.90;;;;;;5091350;28;20512;-69
2022/10/24 12:51:53;;;;;;;0.00;0.00;;;19.20;99.90;;;;;;5088343;28;20858;-69
2022/10/24 12:54:40;;;;;;;0.00;0.00;;;19.10;99.90;;;;;;5091736;28;20458;-70
2022/10/24 12:57:27;;;;;;;0.00;0.00;;;19.10;99.90;;;;;;5094976;28;20795;-69
2022/10/24 12:59:57;;;;;;;0.00;0.00;;;19.10;99.90;;;;;;5089826;28;20836;-68
2022/10/24 13:02:45;;;;;;;0.00;0.00;;;19.10;99.90;;;;;;5091126;28;20441;-69
2022/10/24 13:05:29;;;;;;;0.00;0.00;;;19.10;99.90;;;;;;5008619;28;20442;-69
2022/10/24 13:08:11;;;;;;;0.00;0.00;;;19.20;99.90;;;;;;5010564;28;20496;-69
2022/10/24 13:10:48;;;;;;;0.00;0.00;;;19.20;99.90;;;;;;5007774;28;20499;-68
2022/10/24 13:13:38;;;;;;;0.00;0.00;;;19.10;99.90;;;;;;5016223;28;20559;-69
2022/10/24 13:16:19;;;;;;;0.00;0.00;;;19.00;99.90;;;;;;5011165;28;20492;-69
2022/10/24 13:19:00;;;;;;;0.00;0.00;;;19.00;99.90;;;;;;5011923;28;20869;-67